Time;durP1;ratioP1;P1;durP2;ratioP2;P2;SDS_P1;SDS_P2;PMS_P1;PMS_P2;Temp;Humidity;BMP_temperature;BMP_pressure;BME280_temperature;BME280_humidity;BME280_pressure;Samples;Min_cycle;Max_cycle;Signal;HPM_P1;HPM_P2
2023/04/24 00:00:05;;;;;;;;;5.33;2.33;;;;;10.31;66.45;100377.09;5078455;28;46211;-40
2023/04/24 00:02:32;;;;;;;;;3.00;3.00;;;;;10.30;66.87;100383.41;5079114;28;45346;-41
2023/04/24 00:05:02;;;;;;;;;6.00;5.00;;;;;10.28;67.18;100377.41;5079197;28;45264;-43
2023/04/24 00:07:27;;;;;;;;;6.00;3.67;;;;;10.27;67.01;100383.72;5078717;28;45229;-43
2023/04/24 00:09:52;;;;;;;;;3.00;2.00;;;;;10.23;67.15;100384.00;5078785;28;46033;-42
2023/04/24 00:12:18;;;;;;;;;5.00;3.00;;;;;10.26;67.00;100387.38;5079245;28;45442;-41
2023/04/24 00:14:43;;;;;;;;;5.33;3.00;;;;;10.25;67.27;100394.53;5079116;28;45558;-46
2023/04/24 00:17:08;;;;;;;;;6.00;6.00;;;;;10.24;67.15;100401.66;5079376;28;45319;-47
2023/04/24 00:19:34;;;;;;;;;4.67;2.00;;;;;10.20;67.25;100402.94;5079084;28;45332;-46
2023/04/24 00:21:59;;;;;;;;;5.33;3.33;;;;;10.17;67.53;100400.56;5078251;28;45401;-46
2023/04/24 00:24:24;;;;;;;;;4.67;4.67;;;;;10.17;68.06;100403.22;5079151;28;45331;-46
2023/04/24 00:26:50;;;;;;;;;7.00;4.33;;;;;10.19;67.88;100408.38;5079161;28;45479;-44
2023/04/24 00:29:15;;;;;;;;;5.00;5.00;;;;;10.22;67.76;100410.72;5078809;28;45401;-46
2023/04/24 00:31:40;;;;;;;;;5.33;3.67;;;;;10.24;67.44;100422.94;5078795;28;45369;-40
2023/04/24 00:34:06;;;;;;;;;5.67;5.00;;;;;10.27;67.67;100416.44;5078820;28;45533;-40
2023/04/24 00:36:32;;;;;;;;;5.00;3.00;;;;;10.25;67.52;100421.09;5079177;28;45442;-43
2023/04/24 00:38:58;;;;;;;;;6.00;3.33;;;;;10.23;67.91;100426.53;5060319;28;46034;-43
2023/04/24 00:41:25;;;;;;;;;6.67;3.00;;;;;10.22;67.42;100424.84;5078548;28;45473;-42
2023/04/24 00:43:51;;;;;;;;;6.33;2.00;;;;;10.10;67.52;100418.09;5078357;28;45310;-43
2023/04/24 00:46:17;;;;;;;;;5.67;2.67;;;;;10.17;67.83;100428.97;5078861;28;45419;-43
2023/04/24 00:48:43;;;;;;;;;4.33;2.67;;;;;10.02;67.76;100411.88;5077810;28;46384;-45
2023/04/24 00:51:09;;;;;;;;;7.00;5.00;;;;;10.08;68.04;100429.88;5078444;28;45429;-45
2023/04/24 00:53:34;;;;;;;;;5.00;5.00;;;;;10.07;67.85;100425.53;5060131;28;45249;-41
2023/04/24 00:56:00;;;;;;;;;5.33;5.33;;;;;10.07;67.58;100434.38;5060562;28;45401;-44
2023/04/24 00:58:26;;;;;;;;;8.33;3.00;;;;;9.91;67.59;100424.41;5078216;28;46864;-43
2023/04/24 01:00:53;;;;;;;;;3.67;3.00;;;;;10.06;68.19;100445.13;5078259;28;45351;-43
2023/04/24 01:03:21;;;;;;;;;6.00;4.00;;;;;10.01;68.22;100445.59;5078320;28;45307;-42
2023/04/24 01:05:47;;;;;;;;;6.00;2.00;;;;;9.98;67.93;100449.38;5078345;28;45474;-41
2023/04/24 01:08:14;;;;;;;;;3.00;3.00;;;;;9.97;68.01;100452.19;5078100;28;45442;-42
2023/04/24 01:10:41;;;;;;;;;7.00;3.00;;;;;9.96;68.00;100442.53;5078006;28;45376;-43
2023/04/24 01:13:08;;;;;;;;;6.33;6.33;;;;;9.98;68.38;100451.19;5078209;28;45370;-42
2023/04/24 01:15:33;;;;;;;;;1.00;0.00;;;;;9.98;67.82;100440.56;5078471;28;45483;-43
2023/04/24 01:17:58;;;;;;;;;2.67;2.67;;;;;9.96;68.36;100439.88;5077608;28;46028;-42
2023/04/24 01:20:25;;;;;;;;;8.33;3.67;;;;;9.99;68.11;100444.91;5078175;28;45370;-42
2023/04/24 01:22:51;;;;;;;;;4.67;4.33;;;;;10.00;68.35;100428.81;5078068;28;45438;-42
2023/04/24 01:25:17;;;;;;;;;2.67;2.67;;;;;10.07;68.30;100433.50;5078154;28;45322;-42
2023/04/24 01:27:43;;;;;;;;;7.00;5.00;;;;;10.10;68.21;100422.56;5077766;28;45583;-42
2023/04/24 01:30:09;;;;;;;;;2.33;2.00;;;;;10.14;68.30;100423.94;5077842;28;45459;-42
2023/04/24 01:32:35;;;;;;;;;3.67;3.67;;;;;10.16;68.21;100428.13;5077894;28;45381;-41
2023/04/24 01:35:01;;;;;;;;;5.00;3.00;;;;;10.14;68.02;100432.75;5077887;28;45319;-41
2023/04/24 01:37:26;;;;;;;;;2.00;2.00;;;;;10.16;67.97;100438.78;5077387;28;47256;-44
2023/04/24 01:39:52;;;;;;;;;6.33;2.67;;;;;10.19;67.87;100448.25;5077547;28;45509;-42
2023/04/24 01:42:17;;;;;;;;;8.00;6.67;;;;;10.20;67.96;100450.78;5077817;28;45434;-44
2023/04/24 01:44:43;;;;;;;;;5.00;5.00;;;;;10.20;67.76;100442.78;5078045;28;45336;-43
2023/04/24 01:47:09;;;;;;;;;2.00;2.00;;;;;10.15;67.85;100446.88;5077568;28;45283;-41
2023/04/24 01:49:35;;;;;;;;;7.00;3.00;;;;;10.22;67.62;100450.59;5077506;28;45213;-44
2023/04/24 01:52:00;;;;;;;;;5.00;1.67;;;;;10.17;67.77;100461.69;5077731;28;45330;-43
2023/04/24 01:54:26;;;;;;;;;5.67;3.00;;;;;10.16;67.95;100449.41;5077701;28;45390;-46
2023/04/24 01:56:51;;;;;;;;;6.67;5.00;;;;;10.16;67.85;100457.38;5077566;28;46607;-44
2023/04/24 01:59:18;;;;;;;;;2.00;2.00;;;;;10.18;67.88;100463.34;5076916;28;45358;-44
2023/04/24 02:01:43;;;;;;;;;9.33;3.00;;;;;10.21;67.74;100467.56;5076980;28;45375;-44
2023/04/24 02:04:08;;;;;;;;;4.00;2.00;;;;;10.23;67.96;100473.53;5077705;28;45344;-43
2023/04/24 02:06:34;;;;;;;;;8.00;5.00;;;;;10.25;67.49;100460.97;5058453;28;45379;-43
2023/04/24 02:09:00;;;;;;;;;5.00;2.00;;;;;10.27;67.66;100466.13;5059098;28;45453;-42
2023/04/24 02:11:26;;;;;;;;;3.67;3.67;;;;;10.27;67.65;100464.31;5077228;28;45476;-45
2023/04/24 02:13:52;;;;;;;;;6.00;3.67;;;;;10.29;67.71;100469.50;5077354;28;45481;-44
2023/04/24 02:16:17;;;;;;;;;5.33;3.00;;;;;10.32;67.70;100466.50;5058982;28;48464;-42
2023/04/24 02:18:43;;;;;;;;;7.33;3.00;;;;;10.35;67.64;100469.72;5076967;28;45278;-41
2023/04/24 02:21:09;;;;;;;;;2.33;2.33;;;;;10.37;67.83;100467.75;5077298;28;45283;-41
2023/04/24 02:23:34;;;;;;;;;4.00;2.33;;;;;10.39;67.75;100470.25;5077495;28;45570;-50
2023/04/24 02:26:00;;;;;;;;;2.00;2.00;;;;;10.29;66.96;100470.31;5076877;28;46312;-43
2023/04/24 02:28:25;;;;;;;;;4.33;2.67;;;;;10.38;67.11;100485.38;5077124;28;45297;-43
2023/04/24 02:30:51;;;;;;;;;2.00;2.00;;;;;10.38;67.62;100485.38;5077225;28;45456;-41
2023/04/24 02:33:16;;;;;;;;;3.00;2.67;;;;;10.32;67.48;100475.31;5077567;28;45336;-42
2023/04/24 02:35:42;;;;;;;;;1.00;1.00;;;;;10.40;67.19;100487.84;5076941;28;45306;-42
2023/04/24 02:38:07;;;;;;;;;2.00;2.00;;;;;10.40;67.36;100487.84;5076897;28;45168;-42
2023/04/24 02:40:32;;;;;;;;;2.00;2.00;;;;;10.40;67.52;100494.00;5076931;28;45449;-42
2023/04/24 02:42:57;;;;;;;;;2.00;2.00;;;;;10.39;67.32;100494.19;5077011;28;45190;-42
2023/04/24 02:45:23;;;;;;;;;7.67;3.67;;;;;10.42;67.41;100501.84;5077038;28;46461;-42
2023/04/24 02:47:48;;;;;;;;;2.00;2.00;;;;;10.40;67.43;100488.69;5076858;28;45358;-42
2023/04/24 02:50:14;;;;;;;;;6.00;3.67;;;;;10.43;67.75;100500.88;5076999;28;45449;-42
2023/04/24 02:52:39;;;;;;;;;3.00;2.00;;;;;10.43;67.39;100490.22;5077134;28;45338;-43
2023/04/24 02:55:05;;;;;;;;;3.00;3.00;;;;;10.40;67.51;100501.16;5076592;28;45523;-43
2023/04/24 02:57:30;;;;;;;;;5.00;3.00;;;;;10.32;67.58;100490.44;5076640;28;45417;-42
2023/04/24 02:59:55;;;;;;;;;3.00;3.00;;;;;10.40;67.65;100507.31;5076734;28;45325;-43
2023/04/24 03:02:21;;;;;;;;;5.67;3.00;;;;;10.39;67.89;100504.81;5076900;28;45261;-42
2023/04/24 03:04:47;;;;;;;;;7.67;5.67;;;;;10.40;67.85;100509.13;5076128;28;45308;-43
2023/04/24 03:07:14;;;;;;;;;2.67;2.33;;;;;10.41;67.83;100509.00;5076164;28;45301;-43
2023/04/24 03:09:40;;;;;;;;;6.00;2.00;;;;;10.44;67.57;100515.81;5076566;28;45283;-42
2023/04/24 03:12:05;;;;;;;;;4.67;3.00;;;;;10.39;67.71;100512.78;5078107;28;45321;-42
2023/04/24 03:14:31;;;;;;;;;3.00;1.67;;;;;10.41;67.42;100516.16;5079892;28;45758;-42
2023/04/24 03:16:56;;;;;;;;;7.00;3.00;;;;;10.42;67.32;100508.00;5079918;28;45303;-43
2023/04/24 03:19:22;;;;;;;;;4.67;2.33;;;;;10.40;67.32;100522.44;5079986;28;45265;-42
2023/04/24 03:21:47;;;;;;;;;4.00;2.00;;;;;10.40;68.05;100523.25;5080341;28;45457;-42
2023/04/24 03:24:13;;;;;;;;;2.00;2.00;;;;;10.31;67.11;100508.22;5079647;28;45257;-42
2023/04/24 03:26:38;;;;;;;;;3.67;3.00;;;;;10.40;67.47;100515.28;5079606;28;45400;-42
2023/04/24 03:29:03;;;;;;;;;4.33;4.33;;;;;10.38;67.29;100522.59;5080084;28;45473;-46
2023/04/24 03:31:29;;;;;;;;;3.00;3.00;;;;;10.37;67.48;100520.94;5080216;28;45295;-42
2023/04/24 03:33:54;;;;;;;;;4.33;2.33;;;;;10.39;67.55;100526.09;5061516;28;45386;-43
2023/04/24 03:36:20;;;;;;;;;5.00;2.00;;;;;10.40;67.51;100527.75;5079748;28;45499;-46
2023/04/24 03:38:45;;;;;;;;;3.33;3.00;;;;;10.37;67.54;100526.25;5079625;28;45371;-47
2023/04/24 03:41:11;;;;;;;;;9.00;4.33;;;;;10.33;67.47;100506.25;5080032;28;45375;-45
2023/04/24 03:43:37;;;;;;;;;2.00;2.00;;;;;10.24;67.47;100502.69;5079313;28;45521;-46
2023/04/24 03:46:02;;;;;;;;;3.33;1.33;;;;;10.36;67.57;100518.41;5079113;28;45435;-42
2023/04/24 03:48:28;;;;;;;;;2.00;2.00;;;;;10.34;67.59;100523.03;5079667;28;45299;-41
2023/04/24 03:50:53;;;;;;;;;3.00;3.00;;;;;10.36;68.22;100529.03;5079781;28;45482;-42
2023/04/24 03:53:19;;;;;;;;;7.00;2.67;;;;;10.37;67.68;100536.03;5079420;28;47310;-43
2023/04/24 03:55:45;;;;;;;;;5.00;5.00;;;;;10.24;68.01;100515.97;5079208;28;45463;-43
2023/04/24 03:58:11;;;;;;;;;3.67;2.67;;;;;10.38;67.69;100538.53;5079348;28;45267;-42
2023/04/24 04:00:37;;;;;;;;;3.00;2.00;;;;;10.35;67.75;100541.50;5079644;28;45359;-41
2023/04/24 04:03:03;;;;;;;;;4.33;2.00;;;;;10.38;67.45;100545.69;5079135;28;46088;-45
2023/04/24 04:05:28;;;;;;;;;5.33;3.67;;;;;10.39;67.82;100548.19;5079242;28;45657;-45
2023/04/24 04:07:54;;;;;;;;;7.00;3.67;;;;;10.38;67.79;100556.31;5079238;28;45434;-43
2023/04/24 04:10:19;;;;;;;;;5.00;3.67;;;;;10.37;68.00;100557.31;5079460;28;45324;-42
2023/04/24 04:12:45;;;;;;;;;4.00;3.67;;;;;10.31;68.27;100548.09;5079001;28;46840;-43
2023/04/24 04:15:10;;;;;;;;;4.33;3.00;;;;;10.35;68.16;100552.13;5078850;28;45269;-44
2023/04/24 04:17:37;;;;;;;;;4.67;3.00;;;;;10.36;68.32;100560.94;5079047;28;45441;-44
2023/04/24 04:20:07;;;;;;;;;5.67;3.00;;;;;10.39;67.88;100563.31;5079252;28;45488;-43
2023/04/24 04:22:32;;;;;;;;;2.67;2.67;;;;;10.37;68.23;100559.97;5078132;28;47061;-41
2023/04/24 04:24:57;;;;;;;;;3.00;3.00;;;;;10.38;67.80;100564.31;5077846;28;45192;-44
2023/04/24 04:27:23;;;;;;;;;3.00;3.00;;;;;10.37;67.90;100563.47;5079054;28;45223;-41
2023/04/24 04:29:48;;;;;;;;;9.33;2.33;;;;;10.33;68.07;100561.25;5079351;28;45418;-42
2023/04/24 04:32:13;;;;;;;;;7.00;5.00;;;;;10.35;68.23;100569.91;5078846;28;46043;-42
2023/04/24 04:34:39;;;;;;;;;5.00;3.00;;;;;10.36;68.24;100576.91;5078948;28;45367;-41
2023/04/24 04:37:05;;;;;;;;;3.00;3.00;;;;;10.35;68.33;100575.22;5078990;28;45495;-44
2023/04/24 04:39:31;;;;;;;;;2.00;2.00;;;;;10.36;68.25;100572.41;5060897;28;45323;-43
2023/04/24 04:41:56;;;;;;;;;7.33;3.00;;;;;10.38;68.29;100590.91;5078301;28;46129;-44
2023/04/24 04:44:23;;;;;;;;;8.67;5.67;;;;;10.37;68.30;100579.44;5078430;28;45477;-42
2023/04/24 04:46:48;;;;;;;;;11.00;5.67;;;;;10.34;68.53;100587.69;5078782;28;45504;-48
2023/04/24 04:49:16;;;;;;;;;6.00;6.00;;;;;10.39;68.42;100592.56;5078892;28;45328;-45
2023/04/24 04:51:42;;;;;;;;;3.00;3.00;;;;;10.39;68.32;100598.72;5078452;28;46528;-44
2023/04/24 04:54:07;;;;;;;;;7.67;3.00;;;;;10.39;68.13;100604.03;5078360;28;45256;-44
2023/04/24 04:56:32;;;;;;;;;7.00;5.67;;;;;10.42;68.32;100611.72;5078485;28;45410;-46
2023/04/24 04:58:59;;;;;;;;;6.67;2.67;;;;;10.40;68.36;100607.53;5077847;28;45520;-44
2023/04/24 05:01:25;;;;;;;;;11.33;5.00;;;;;10.42;68.23;100610.88;5078158;28;47152;-43
2023/04/24 05:03:50;;;;;;;;;3.00;3.00;;;;;10.42;68.33;100613.53;5077210;28;45355;-44
2023/04/24 05:06:16;;;;;;;;;6.33;4.33;;;;;10.42;68.27;100625.00;5078337;28;45264;-42
2023/04/24 05:08:41;;;;;;;;;8.33;5.33;;;;;10.41;68.09;100626.00;5078517;28;45307;-42
2023/04/24 05:11:06;;;;;;;;;5.00;5.00;;;;;10.40;68.59;100628.78;5077710;28;45998;-43
2023/04/24 05:13:34;;;;;;;;;5.67;5.00;;;;;10.40;68.22;100634.94;5078281;28;45345;-41
2023/04/24 05:15:59;;;;;;;;;10.67;3.67;;;;;10.38;68.19;100633.44;5078117;28;45434;-42
2023/04/24 05:18:25;;;;;;;;;10.67;7.00;;;;;10.39;68.63;100640.41;5078190;28;45352;-47
2023/04/24 05:20:50;;;;;;;;;12.00;7.00;;;;;10.40;68.37;100650.06;5077911;28;47320;-41
2023/04/24 05:23:15;;;;;;;;;13.00;8.00;;;;;10.45;68.41;100658.47;5077766;28;45470;-45
2023/04/24 05:25:41;;;;;;;;;11.33;6.33;;;;;10.46;68.27;100663.63;5077919;28;45850;-48
2023/04/24 05:28:06;;;;;;;;;8.67;7.00;;;;;10.48;68.84;100661.63;5077714;28;45500;-46
2023/04/24 05:30:32;;;;;;;;;11.00;7.33;;;;;10.51;68.51;100667.66;5077946;28;45217;-43
2023/04/24 05:32:57;;;;;;;;;5.33;4.67;;;;;10.43;68.62;100657.75;5077898;28;45244;-47
2023/04/24 05:35:23;;;;;;;;;8.67;6.67;;;;;10.56;68.70;100673.38;5077855;28;45621;-44
2023/04/24 05:37:48;;;;;;;;;7.33;7.00;;;;;10.59;68.57;100673.91;5078036;28;45450;-42
2023/04/24 05:40:13;;;;;;;;;8.00;6.00;;;;;10.63;68.43;100685.94;5077673;28;46281;-43
2023/04/24 05:42:39;;;;;;;;;7.00;7.00;;;;;10.68;68.21;100683.66;5077140;28;45274;-45
2023/04/24 05:45:05;;;;;;;;;15.00;7.33;;;;;10.74;68.22;100683.06;5077824;28;45412;-44
2023/04/24 05:47:31;;;;;;;;;10.00;6.00;;;;;10.77;68.30;100678.44;5077859;28;45410;-44
2023/04/24 05:49:56;;;;;;;;;6.33;6.00;;;;;10.87;68.09;100697.81;5077490;28;46103;-43
2023/04/24 05:52:21;;;;;;;;;6.00;6.00;;;;;10.90;68.00;100690.38;5077637;28;45354;-45
2023/04/24 05:54:47;;;;;;;;;7.33;7.33;;;;;10.96;67.61;100710.25;5077770;28;45325;-43
2023/04/24 05:57:12;;;;;;;;;9.67;8.33;;;;;10.90;67.74;100692.22;5077620;28;45387;-45
2023/04/24 05:59:41;;;;;;;;;8.67;8.67;;;;;10.98;67.73;100709.09;5077435;28;46515;-45
2023/04/24 06:02:07;;;;;;;;;8.00;6.00;;;;;11.02;67.50;100706.16;5077576;28;45191;-45
2023/04/24 06:04:33;;;;;;;;;8.00;8.00;;;;;11.05;67.60;100712.00;5077581;28;45177;-43
2023/04/24 06:06:58;;;;;;;;;8.33;7.00;;;;;11.07;67.25;100717.19;5077878;28;45494;-44
2023/04/24 06:09:25;;;;;;;;;9.00;6.33;;;;;11.06;67.21;100713.69;5077372;28;45525;-45
2023/04/24 06:11:53;;;;;;;;;12.00;8.00;;;;;11.13;67.30;100727.25;5077188;28;45310;-46
2023/04/24 06:14:19;;;;;;;;;11.00;8.33;;;;;11.13;67.48;100736.06;5077337;28;45219;-44
2023/04/24 06:16:44;;;;;;;;;10.33;8.33;;;;;11.15;67.37;100733.22;5077353;28;45235;-44
2023/04/24 06:19:10;;;;;;;;;10.00;6.67;;;;;11.13;67.71;100736.06;5077001;28;48702;-44
2023/04/24 06:21:35;;;;;;;;;10.67;8.67;;;;;11.12;67.27;100741.50;5077114;28;45426;-42
2023/04/24 06:24:01;;;;;;;;;7.33;7.33;;;;;11.15;67.44;100744.72;5077100;28;45312;-43
2023/04/24 06:26:27;;;;;;;;;12.67;10.33;;;;;11.18;67.38;100747.09;5077360;28;45534;-46
2023/04/24 06:28:56;;;;;;;;;8.67;7.00;;;;;11.19;67.25;100746.09;5077093;28;46185;-46
2023/04/24 06:31:22;;;;;;;;;16.00;9.00;;;;;11.24;67.20;100754.47;5077032;28;45353;-43
2023/04/24 06:33:48;;;;;;;;;13.00;11.00;;;;;11.27;67.70;100760.50;5077142;28;45366;-46
2023/04/24 06:36:14;;;;;;;;;12.67;8.00;;;;;11.32;66.91;100758.19;5077294;28;45434;-42
2023/04/24 06:38:39;;;;;;;;;11.00;11.00;;;;;11.34;67.04;100762.41;5076752;28;47288;-45
2023/04/24 06:41:05;;;;;;;;;10.00;10.00;;;;;11.37;67.10;100767.41;5076768;28;45421;-45
2023/04/24 06:43:31;;;;;;;;;15.00;9.00;;;;;11.37;67.12;100763.91;5076974;28;45362;-42
2023/04/24 06:45:58;;;;;;;;;12.00;10.33;;;;;11.43;67.22;100768.66;5077481;28;45431;-46
2023/04/24 06:48:24;;;;;;;;;14.67;11.00;;;;;11.43;66.94;100766.81;5080345;28;46394;-45
2023/04/24 06:50:49;;;;;;;;;13.33;11.00;;;;;11.47;66.91;100773.50;5080522;28;45454;-45
2023/04/24 06:53:15;;;;;;;;;11.00;11.00;;;;;11.63;67.11;100767.50;5080508;28;45492;-46
2023/04/24 06:55:40;;;;;;;;;15.67;8.33;;;;;11.86;66.24;100775.06;5080674;28;45440;-45
2023/04/24 06:58:06;;;;;;;;;17.33;12.00;;;;;12.04;65.41;100778.50;5079976;28;45425;-46
2023/04/24 07:00:31;;;;;;;;;17.33;11.33;;;;;12.08;65.17;100768.38;5080234;28;45355;-45
2023/04/24 07:02:57;;;;;;;;;11.00;9.67;;;;;12.65;64.72;100766.06;5080336;28;45401;-49
2023/04/24 07:05:23;;;;;;;;;13.00;10.00;;;;;13.51;62.48;100747.13;5080240;28;45299;-48
2023/04/24 07:07:49;;;;;;;;;8.00;8.00;;;;;14.52;61.33;100767.31;5061745;28;46027;-44
2023/04/24 07:10:15;;;;;;;;;11.00;10.67;;;;;15.13;58.34;100763.88;5080157;28;45312;-46
2023/04/24 07:12:40;;;;;;;;;16.67;11.33;;;;;15.31;57.58;100762.78;5079841;28;45287;-47
2023/04/24 07:15:07;;;;;;;;;13.67;11.67;;;;;14.95;57.97;100761.44;5080244;28;45526;-45
2023/04/24 07:17:34;;;;;;;;;12.67;11.00;;;;;14.58;58.02;100771.97;5079757;28;46273;-41
2023/04/24 07:20:00;;;;;;;;;12.67;12.00;;;;;14.37;58.53;100772.50;5079484;28;45313;-46
2023/04/24 07:22:25;;;;;;;;;15.00;11.33;;;;;14.50;58.34;100775.53;5080089;28;45397;-45
2023/04/24 07:24:50;;;;;;;;;14.67;10.00;;;;;14.45;58.48;100772.47;5080102;28;45395;-46
2023/04/24 07:27:16;;;;;;;;;17.00;14.67;;;;;14.16;58.40;100768.53;5079892;28;45417;-46
2023/04/24 07:29:42;;;;;;;;;16.00;15.33;;;;;13.95;58.96;100762.88;5079716;28;45376;-46
2023/04/24 07:32:07;;;;;;;;;14.33;12.00;;;;;13.84;59.56;100773.91;5079900;28;45386;-47
2023/04/24 07:34:33;;;;;;;;;14.00;11.33;;;;;13.68;59.85;100766.69;5080152;28;45470;-44
2023/04/24 07:36:58;;;;;;;;;18.33;13.33;;;;;13.57;60.12;100783.91;5079556;28;47283;-45
2023/04/24 07:39:24;;;;;;;;;15.00;12.33;;;;;13.43;61.19;100790.72;5079904;28;45382;-44
2023/04/24 07:41:49;;;;;;;;;16.33;14.00;;;;;13.26;61.05;100794.34;5079534;28;45205;-45
2023/04/24 07:44:15;;;;;;;;;13.00;9.00;;;;;13.19;61.31;100787.97;5079630;28;45414;-45
2023/04/24 07:46:40;;;;;;;;;19.33;11.67;;;;;13.12;61.22;100794.94;5079440;28;47057;-41
2023/04/24 07:49:05;;;;;;;;;15.33;11.00;;;;;13.09;61.78;100796.09;5079559;28;45366;-45
2023/04/24 07:51:32;;;;;;;;;16.00;11.00;;;;;13.05;61.85;100805.44;5079844;28;45319;-45
2023/04/24 07:53:57;;;;;;;;;17.00;15.67;;;;;12.96;62.22;100795.72;5079647;28;45277;-42
2023/04/24 07:56:23;;;;;;;;;18.33;14.00;;;;;12.91;61.90;100804.22;5079136;28;46618;-45
2023/04/24 07:58:48;;;;;;;;;19.00;14.00;;;;;12.80;62.36;100801.81;5077975;28;45354;-43
2023/04/24 08:01:13;;;;;;;;;14.67;12.67;;;;;12.73;62.05;100801.63;5079453;28;45409;-45
2023/04/24 08:03:39;;;;;;;;;10.00;7.67;;;;;12.56;62.41;100780.38;5079661;28;45400;-42
2023/04/24 08:06:05;;;;;;;;;13.67;13.33;;;;;12.63;62.95;100806.25;5078885;28;47496;-47
2023/04/24 08:08:30;;;;;;;;;14.67;11.33;;;;;12.57;62.76;100816.72;5079100;28;45410;-42
2023/04/24 08:10:55;;;;;;;;;13.33;8.67;;;;;12.52;63.09;100816.38;5061162;28;45601;-45
2023/04/24 08:13:21;;;;;;;;;21.00;16.67;;;;;12.47;63.58;100816.81;5079188;28;45375;-44
2023/04/24 08:15:47;;;;;;;;;17.67;13.67;;;;;12.38;63.60;100829.25;5079110;28;46257;-41
2023/04/24 08:18:13;;;;;;;;;16.33;13.33;;;;;12.32;63.96;100826.41;5078835;28;45399;-43
2023/04/24 08:20:39;;;;;;;;;20.67;9.00;;;;;12.37;63.34;100826.75;5079076;28;45371;-40
2023/04/24 08:23:04;;;;;;;;;11.67;11.67;;;;;12.55;63.47;100832.03;5061169;28;45251;-43
2023/04/24 08:25:30;;;;;;;;;19.00;14.67;;;;;12.77;62.75;100836.88;5078940;28;46103;-45
2023/04/24 08:27:55;;;;;;;;;23.67;14.67;;;;;12.95;62.56;100828.78;5078768;28;45408;-43
2023/04/24 08:30:21;;;;;;;;;16.00;13.33;;;;;12.93;61.92;100802.22;5078979;28;45247;-44
2023/04/24 08:32:46;;;;;;;;;16.33;14.00;;;;;13.09;61.75;100812.13;5077712;28;45231;-45
2023/04/24 08:35:12;;;;;;;;;21.00;16.00;;;;;13.54;61.01;100826.16;5078686;28;46074;-45
2023/04/24 08:37:37;;;;;;;;;14.67;12.67;;;;;14.86;59.38;100820.56;5078700;28;45381;-41
2023/04/24 08:40:14;;;;;;;;;19.33;16.00;;;;;17.03;54.12;100819.28;5078820;28;45474;-41
2023/04/24 08:42:41;;;;;;;;;16.00;12.67;;;;;17.14;52.65;100821.47;5078838;28;45605;-42
2023/04/24 08:45:07;;;;;;;;;18.67;15.67;;;;;17.48;51.07;100820.00;5078469;28;46530;-43
2023/04/24 08:47:33;;;;;;;;;17.67;15.00;;;;;17.53;51.17;100824.81;5078050;28;45368;-40
2023/04/24 08:49:59;;;;;;;;;20.33;12.67;;;;;17.65;50.25;100832.19;5078436;28;45329;-43
2023/04/24 08:52:25;;;;;;;;;20.33;16.00;;;;;17.54;49.81;100816.56;5078768;28;45465;-42
2023/04/24 08:54:53;;;;;;;;;17.33;16.00;;;;;17.30;51.22;100830.34;5078326;28;47048;-44
2023/04/24 08:57:19;;;;;;;;;16.67;13.67;;;;;16.94;51.52;100826.59;5078264;28;45469;-41
2023/04/24 08:59:45;;;;;;;;;21.33;17.00;;;;;16.76;52.24;100826.13;5078273;28;45436;-42
2023/04/24 09:02:11;;;;;;;;;21.67;16.00;;;;;16.57;51.71;100808.69;5078512;28;45427;-43
2023/04/24 09:04:37;;;;;;;;;15.00;15.00;;;;;16.76;52.38;100822.59;5077757;28;46233;-41
2023/04/24 09:07:04;;;;;;;;;23.33;18.00;;;;;16.70;52.21;100822.31;5078263;28;45422;-42
2023/04/24 09:09:32;;;;;;;;;19.67;14.00;;;;;16.67;52.03;100819.97;5077819;28;45353;-44
2023/04/24 09:11:58;;;;;;;;;19.67;13.33;;;;;16.61;51.47;100830.63;5078300;28;45268;-42
2023/04/24 09:14:24;;;;;;;;;21.67;15.00;;;;;16.63;51.93;100829.41;5077799;28;46185;-42
2023/04/24 09:16:50;;;;;;;;;19.67;15.33;;;;;16.68;51.35;100827.00;5077958;28;45319;-42
2023/04/24 09:19:15;;;;;;;;;19.00;18.00;;;;;16.67;51.63;100830.72;5078260;28;45350;-43
2023/04/24 09:21:44;;;;;;;;;17.67;14.67;;;;;16.57;51.48;100834.72;5078008;28;45407;-43
2023/04/24 09:24:20;;;;;;;;;17.67;16.00;;;;;16.38;51.93;100836.88;5077675;28;46393;-44
2023/04/24 09:26:45;;;;;;;;;18.00;14.67;;;;;16.21;52.39;100840.75;5077930;28;45256;-44
2023/04/24 09:29:17;;;;;;;;;17.67;16.00;;;;;15.95;52.78;100833.91;5077774;28;45500;-44
2023/04/24 09:31:45;;;;;;;;;19.67;16.67;;;;;15.88;53.05;100841.00;5078088;28;45522;-44
2023/04/24 09:34:10;;;;;;;;;21.00;14.67;;;;;15.73;53.32;100852.69;5077712;28;46244;-45
2023/04/24 09:36:37;;;;;;;;;17.67;12.67;;;;;15.58;53.42;100853.41;5077627;28;45319;-42
2023/04/24 09:39:11;;;;;;;;;15.00;13.00;;;;;15.60;53.44;100850.56;5077784;28;45341;-44
2023/04/24 09:41:57;;;;;;;;;13.67;12.33;;;;;15.63;53.35;100851.03;5078123;28;45177;-42
2023/04/24 09:44:26;;;;;;;;;18.00;15.67;;;;;15.61;53.54;100854.91;5092732;27;46395;-41
2023/04/24 09:46:54;;;;;;;;;16.33;13.67;;;;;15.58;53.31;100871.34;5097892;27;45361;-43
2023/04/24 09:49:29;;;;;;;;;17.00;13.00;;;;;15.49;54.16;100865.19;5098130;27;45266;-44
2023/04/24 09:52:06;;;;;;;;;14.00;12.67;;;;;15.42;53.58;100866.88;5098404;27;45459;-40
2023/04/24 09:54:32;;;;;;;;;16.67;16.00;;;;;15.41;53.47;100865.22;5097872;27;46406;-43
2023/04/24 09:56:57;;;;;;;;;16.00;13.67;;;;;15.48;53.77;100860.84;5079402;27;45387;-43
2023/04/24 09:59:22;;;;;;;;;18.00;12.33;;;;;15.56;53.59;100849.25;5097943;27;45494;-41
2023/04/24 10:01:49;;;;;;;;;18.00;13.67;;;;;15.68;52.95;100863.94;5098246;27;45616;-46
2023/04/24 10:04:26;;;;;;;;;17.67;12.67;;;;;15.73;53.20;100871.47;5097617;27;45467;-41
2023/04/24 10:06:53;;;;;;;;;13.00;11.00;;;;;15.83;52.42;100864.84;5090792;27;45563;-46
2023/04/24 10:09:21;;;;;;;;;19.00;15.67;;;;;15.81;52.09;100863.38;5097570;27;45375;-42
2023/04/24 10:11:49;;;;;;;;;17.67;16.00;;;;;15.80;52.62;100862.53;5097375;27;45511;-43
2023/04/24 10:14:16;;;;;;;;;14.67;14.67;;;;;16.20;52.14;100861.38;5097281;27;46130;-43
2023/04/24 10:16:43;;;;;;;;;11.33;9.33;;;;;16.51;51.45;100856.91;5097401;27;45437;-41
2023/04/24 10:19:10;;;;;;;;;20.33;13.33;;;;;17.48;49.46;100852.28;5097089;27;45610;-42
2023/04/24 10:21:42;;;;;;;;;15.33;13.00;;;;;17.75;49.42;100855.31;5096714;27;45230;-41
2023/04/24 10:24:08;;;;;;;;;15.00;13.67;;;;;17.56;49.36;100857.53;5097186;27;47106;-41
2023/04/24 10:26:34;;;;;;;;;17.00;15.33;;;;;17.36;48.15;100860.00;5097224;27;45463;-41
2023/04/24 10:29:01;;;;;;;;;18.33;15.33;;;;;17.56;48.07;100854.03;5097355;27;45368;-41
2023/04/24 10:31:30;;;;;;;;;19.00;12.33;;;;;18.02;47.55;100851.84;5097433;27;45384;-43
2023/04/24 10:33:57;;;;;;;;;18.33;13.00;;;;;18.24;46.09;100843.75;5097005;27;46337;-42
2023/04/24 10:36:26;;;;;;;;;13.33;12.00;;;;;18.26;47.17;100849.78;5097291;27;45535;-41
2023/04/24 10:38:54;;;;;;;;;18.33;14.33;;;;;18.15;47.14;100848.44;5097087;27;45356;-42
2023/04/24 10:41:22;;;;;;;;;13.67;13.33;;;;;18.09;46.03;100850.06;5097552;27;45406;-41
2023/04/24 10:44:07;;;;;;;;;21.00;17.67;;;;;17.99;47.72;100862.16;5096592;27;47389;-41
2023/04/24 10:46:33;;;;;;;;;15.67;13.67;;;;;18.27;47.65;100854.97;5096985;27;45367;-41
2023/04/24 10:48:58;;;;;;;;;13.67;13.67;;;;;18.45;46.08;100857.16;5097264;27;45268;-42
2023/04/24 10:51:42;;;;;;;;;16.33;12.67;;;;;19.03;45.71;100852.41;5097417;27;45273;-41
2023/04/24 10:54:44;;;;;;;;;16.00;13.33;;;;;19.15;46.63;100864.28;5096755;27;45327;-46
2023/04/24 10:57:22;;;;;;;;;14.33;11.67;;;;;18.61;44.59;100862.28;5096913;27;45295;-40
2023/04/24 10:59:51;;;;;;;;;14.00;10.25;;;;;18.02;46.69;100841.06;5096908;27;45354;-44
2023/04/24 11:02:18;;;;;;;;;15.33;12.67;;;;;17.60;47.07;100853.44;5097100;27;45222;-43
2023/04/24 11:04:44;;;;;;;;;7.67;7.67;;;;;17.20;47.22;100853.00;5096714;27;46643;-43
2023/04/24 11:07:11;;;;;;;;;12.67;9.67;;;;;16.90;48.05;100851.34;5095459;27;45467;-44
2023/04/24 11:09:37;;;;;;;;;11.33;10.00;;;;;16.92;48.24;100846.59;5094616;27;45357;-41
2023/04/24 11:12:08;;;;;;;;;13.67;9.00;;;;;17.10;48.09;100855.09;5096089;27;45461;-43
2023/04/24 11:14:59;;;;;;;;;11.33;9.00;;;;;17.18;48.24;100844.25;5082671;27;46128;-42